createdAt,value
2022-12-08T00:01:46.782Z,99290.38
2022-12-08T00:04:26.239Z,99291.16
2022-12-08T00:07:16.595Z,99288.38
2022-12-08T00:09:54.106Z,99288.91
2022-12-08T00:12:39.065Z,99286.84
2022-12-08T00:15:08.991Z,99288.41
2022-12-08T00:17:40.704Z,99284.81
2022-12-08T00:20:14.059Z,99284.47
2022-12-08T00:22:49.434Z,99282.28
2022-12-08T00:25:20.108Z,99279.66
2022-12-08T00:27:51.963Z,99276.03
2022-12-08T00:30:22.917Z,99281.09
2022-12-08T00:33:05.321Z,99275.31
2022-12-08T00:35:35.638Z,99281.84
2022-12-08T00:38:09.496Z,99283.16
2022-12-08T00:40:38.342Z,99281.50
2022-12-08T00:43:11.572Z,99273.91
2022-12-08T00:45:42.545Z,99276.03
2022-12-08T00:48:11.359Z,99273.66
2022-12-08T00:50:42.267Z,99276.03
2022-12-08T00:53:16.065Z,99274.31
2022-12-08T00:55:46.697Z,99276.09
2022-12-08T00:58:21.978Z,99277.63
2022-12-08T01:00:51.756Z,99271.22
2022-12-08T01:03:34.098Z,99275.81
2022-12-08T01:06:15.755Z,99273.91
2022-12-08T01:08:56.760Z,99273.75
2022-12-08T01:11:25.903Z,99280.13
2022-12-08T01:14:00.150Z,99278.91
2022-12-08T01:16:38.640Z,99280.69
2022-12-08T01:19:07.950Z,99279.66
2022-12-08T01:21:39.009Z,99276.38
2022-12-08T01:24:16.399Z,99276.53
2022-12-08T01:26:47.208Z,99276.88
2022-12-08T01:29:32.264Z,99270.34
2022-12-08T01:32:09.259Z,99264.00
2022-12-08T01:34:42.009Z,99271.09
2022-12-08T01:37:16.480Z,99264.09
2022-12-08T01:39:44.613Z,99264.06
2022-12-08T01:42:25.113Z,99258.03
2022-12-08T01:45:03.787Z,99267.34
2022-12-08T01:47:49.458Z,99262.47
2022-12-08T01:50:27.409Z,99255.41
2022-12-08T01:53:01.179Z,99257.09
2022-12-08T01:55:35.210Z,99251.03
2022-12-08T01:58:16.763Z,99257.72
2022-12-08T02:00:52.711Z,99240.19
2022-12-08T02:03:31.439Z,99240.97
2022-12-08T02:06:12.614Z,99235.56
2022-12-08T02:08:47.825Z,99233.47
2022-12-08T02:11:20.362Z,99232.97
2022-12-08T02:13:51.426Z,99236.13
2022-12-08T02:16:40.896Z,99228.84
2022-12-08T02:19:31.654Z,99227.25
2022-12-08T02:22:02.779Z,99223.91
2022-12-08T02:24:41.370Z,99230.06
2022-12-08T02:27:22.965Z,99224.88
2022-12-08T02:30:16.636Z,99218.38
2022-12-08T02:33:30.879Z,99214.38
2022-12-08T02:36:13.375Z,99206.09
2022-12-08T02:38:51.234Z,99206.38
2022-12-08T02:41:28.951Z,99205.91
2022-12-08T02:44:04.102Z,99198.97
2022-12-08T02:46:45.237Z,99202.34
2022-12-08T02:49:19.433Z,99193.31
2022-12-08T02:51:50.026Z,99198.72
2022-12-08T02:54:22.545Z,99195.00
2022-12-08T02:57:11.951Z,99196.78
2022-12-08T02:59:58.969Z,99189.59
2022-12-08T03:02:45.724Z,99186.47
2022-12-08T03:05:33.811Z,99185.38
2022-12-08T03:08:08.065Z,99184.06
2022-12-08T03:10:41.563Z,99187.88
2022-12-08T03:13:16.855Z,99190.56
2022-12-08T03:15:53.714Z,99178.91
2022-12-08T03:18:36.772Z,99176.72
2022-12-08T03:21:05.942Z,99176.97
2022-12-08T03:23:41.205Z,99172.16
2022-12-08T03:26:15.833Z,99172.16
2022-12-08T03:28:53.017Z,99170.09
2022-12-08T03:31:27.572Z,99164.09
2022-12-08T03:33:58.111Z,99160.28
2022-12-08T03:36:36.579Z,99166.72
2022-12-08T03:39:12.589Z,99166.72
2022-12-08T03:41:40.610Z,99164.09
2022-12-08T03:44:08.837Z,99161.31
2022-12-08T03:46:36.830Z,99161.56
2022-12-08T03:49:05.025Z,99151.22
2022-12-08T03:51:33.016Z,99156.38
2022-12-08T03:54:01.067Z,99149.03
2022-12-08T03:56:32.954Z,99152.25
2022-12-08T03:59:01.101Z,99144.00
2022-12-08T04:01:29.240Z,99145.31
2022-12-08T04:03:57.337Z,99147.44
2022-12-08T04:06:25.850Z,99138.34
2022-12-08T04:08:53.954Z,99134.84
2022-12-08T04:11:22.499Z,99140.75
2022-12-08T04:13:51.917Z,99146.00
2022-12-08T04:16:22.112Z,99137.25
2022-12-08T04:18:50.299Z,99142.31
2022-12-08T04:21:18.396Z,99137.50
2022-12-08T04:23:47.128Z,99141.09
2022-12-08T04:26:15.638Z,99137.84
2022-12-08T04:28:43.686Z,99136.41
2022-12-08T04:31:13.164Z,99137.97
2022-12-08T04:33:41.339Z,99138.09
2022-12-08T04:36:10.500Z,99132.56
2022-12-08T04:38:38.490Z,99131.47
2022-12-08T04:41:06.533Z,99127.16
2022-12-08T04:43:34.545Z,99130.72
2022-12-08T04:46:02.567Z,99125.31
2022-12-08T04:48:31.978Z,99123.44
2022-12-08T04:50:59.964Z,99113.81
2022-12-08T04:53:27.947Z,99116.47
2022-12-08T04:55:56.169Z,99120.47
2022-12-08T04:58:24.138Z,99114.81
2022-12-08T05:00:52.297Z,99123.66
2022-12-08T05:03:26.720Z,99115.84
2022-12-08T05:05:57.794Z,99114.81
2022-12-08T05:08:27.242Z,99119.13
2022-12-08T05:11:06.829Z,99115.44
2022-12-08T05:13:36.005Z,99116.81
2022-12-08T05:16:09.400Z,99106.47
2022-12-08T05:18:46.734Z,99104.19
2022-12-08T05:21:29.292Z,99104.06
2022-12-08T05:24:03.899Z,99109.56
2022-12-08T05:26:35.099Z,99101.59
2022-12-08T05:29:06.437Z,99115.72
2022-12-08T05:31:44.389Z,99100.75
2022-12-08T05:34:15.304Z,99103.91
2022-12-08T05:36:59.449Z,99101.78
2022-12-08T05:39:27.774Z,99104.53
2022-12-08T05:41:56.961Z,99098.81
2022-12-08T05:44:28.219Z,99097.19
2022-12-08T05:46:57.592Z,99105.63
2022-12-08T05:49:26.261Z,99102.13
2022-12-08T05:52:03.722Z,99109.00
2022-12-08T05:54:47.782Z,99103.34
2022-12-08T05:57:25.607Z,99098.06
2022-12-08T06:00:02.296Z,99092.66
2022-12-08T06:02:43.811Z,99093.72
2022-12-08T06:05:12.677Z,99081.38
2022-12-08T06:07:42.849Z,99086.91
2022-12-08T06:10:15.100Z,99082.81
2022-12-08T06:12:45.997Z,99077.25
2022-12-08T06:15:21.887Z,99084.25
2022-12-08T06:17:52.529Z,99091.59
2022-12-08T06:20:23.365Z,99089.91
2022-12-08T06:23:05.812Z,99087.38
2022-12-08T06:25:37.724Z,99091.09
2022-12-08T06:28:07.511Z,99089.66
2022-12-08T06:30:39.044Z,99087.28
2022-12-08T06:33:07.542Z,99082.13
2022-12-08T06:35:36.556Z,99077.06
2022-12-08T06:38:19.476Z,99078.75
2022-12-08T06:40:57.944Z,99075.25
2022-12-08T06:43:29.775Z,99077.88
2022-12-08T06:46:11.257Z,99088.09
2022-12-08T06:48:45.080Z,99085.00
2022-12-08T06:51:15.941Z,99077.78
2022-12-08T06:53:48.335Z,99079.22
2022-12-08T06:56:28.569Z,99081.56
2022-12-08T06:58:56.856Z,99081.84
2022-12-08T07:01:39.524Z,99073.28
2022-12-08T07:04:14.935Z,99079.94
2022-12-08T07:06:52.633Z,99082.59
2022-12-08T07:09:25.139Z,99075.75
2022-12-08T07:11:54.088Z,99071.44
2022-12-08T07:14:25.762Z,99069.53
2022-12-08T07:16:56.533Z,99070.00
2022-12-08T07:19:30.565Z,99071.28
2022-12-08T07:21:59.000Z,99069.53
2022-12-08T07:24:37.231Z,99061.34
2022-12-08T07:27:19.443Z,99063.84
2022-12-08T07:29:50.978Z,99062.56
2022-12-08T07:32:27.661Z,99060.38
2022-12-08T07:34:56.176Z,99064.47
2022-12-08T07:37:27.081Z,99067.47
2022-12-08T07:39:59.252Z,99066.38
2022-12-08T07:42:35.673Z,99071.31
2022-12-08T07:45:05.493Z,99070.84
2022-12-08T07:47:42.493Z,99067.97
2022-12-08T07:50:13.161Z,99071.19
2022-12-08T07:52:45.025Z,99064.72
2022-12-08T07:55:22.315Z,99068.44
2022-12-08T07:58:12.109Z,99079.59
2022-12-08T08:00:55.957Z,99072.16
2022-12-08T08:03:24.870Z,99070.63
2022-12-08T08:05:59.861Z,99066.16
2022-12-08T08:08:33.468Z,99073.72
2022-12-08T08:11:15.795Z,99073.97
2022-12-08T08:13:50.949Z,99070.59
2022-12-08T08:16:26.009Z,99070.09
2022-12-08T08:19:03.215Z,99081.19
2022-12-08T08:21:45.486Z,99076.59
2022-12-08T08:24:17.474Z,99082.00
2022-12-08T08:26:50.483Z,99081.41
2022-12-08T08:29:19.073Z,99070.56
2022-12-08T08:31:58.380Z,99065.16
2022-12-08T08:34:28.692Z,99073.34
2022-12-08T08:37:00.511Z,99073.25
2022-12-08T08:39:31.953Z,99064.81
2022-12-08T08:42:12.776Z,99068.75
2022-12-08T08:44:44.925Z,99059.50
2022-12-08T08:47:17.543Z,99066.22
2022-12-08T08:49:48.914Z,99064.19
2022-12-08T08:52:19.783Z,99059.75
2022-12-08T08:54:51.639Z,99057.56
2022-12-08T08:57:28.339Z,99065.63
2022-12-08T09:00:04.146Z,99066.81
2022-12-08T09:02:36.074Z,99061.16
2022-12-08T09:05:04.885Z,99061.41
2022-12-08T09:07:34.055Z,99070.06
2022-12-08T09:10:04.203Z,99060.03
2022-12-08T09:12:45.871Z,99058.75
2022-12-08T09:15:16.389Z,99058.88
2022-12-08T09:17:59.345Z,99057.03
2022-12-08T09:20:31.148Z,99059.13
2022-12-08T09:23:35.375Z,99049.22
2022-12-08T09:26:13.939Z,99046.34
2022-12-08T09:28:46.456Z,99041.16
2022-12-08T09:31:25.966Z,99039.41
2022-12-08T09:33:58.816Z,99031.50
2022-12-08T09:36:34.122Z,99032.25
2022-12-08T09:39:11.232Z,99030.06
2022-12-08T09:41:53.096Z,99035.22
2022-12-08T09:45:06.515Z,99028.31
2022-12-08T09:48:08.929Z,99012.34
2022-12-08T09:50:45.778Z,99008.81
2022-12-08T09:53:22.718Z,99006.25
2022-12-08T09:55:56.906Z,99010.03
2022-12-08T09:58:35.782Z,99003.56
2022-12-08T10:01:06.469Z,99001.41
2022-12-08T10:03:43.688Z,98989.47
2022-12-08T10:06:26.899Z,98989.19
2022-12-08T10:09:12.331Z,98983.97
2022-12-08T10:11:51.008Z,98978.13
2022-12-08T10:14:28.051Z,98978.59
2022-12-08T10:17:09.423Z,98983.06
2022-12-08T10:19:39.741Z,98975.66
2022-12-08T10:22:22.879Z,98971.59
2022-12-08T10:25:00.353Z,98966.81
2022-12-08T10:27:36.799Z,98965.94
2022-12-08T10:30:20.004Z,98957.28
2022-12-08T10:32:52.328Z,98957.59
2022-12-08T10:35:28.526Z,98962.06
2022-12-08T10:38:00.721Z,98958.47
2022-12-08T10:40:36.878Z,98957.88
2022-12-08T10:43:20.866Z,98948.56
2022-12-08T10:45:54.786Z,98953.72
2022-12-08T10:48:27.857Z,98943.09
2022-12-08T10:50:58.028Z,98941.59
2022-12-08T10:53:29.513Z,98937.53
2022-12-08T10:56:08.543Z,98937.69
2022-12-08T10:58:40.699Z,98939.19
2022-12-08T11:01:13.450Z,98931.44
2022-12-08T11:03:46.853Z,98927.34
2022-12-08T11:06:17.707Z,98920.13
2022-12-08T11:08:49.907Z,98920.19
2022-12-08T11:11:18.359Z,98921.09
2022-12-08T11:13:49.485Z,98918.19
2022-12-08T11:16:18.575Z,98909.75
2022-12-08T11:18:49.998Z,98902.72
2022-12-08T11:21:20.204Z,98910.78
2022-12-08T11:23:49.989Z,98903.94
2022-12-08T11:26:22.386Z,98898.69
2022-12-08T11:28:50.675Z,98885.56
2022-12-08T11:31:29.067Z,98881.94
2022-12-08T11:33:58.745Z,98882.16
2022-12-08T11:36:28.481Z,98887.47
2022-12-08T11:38:58.679Z,98886.84
2022-12-08T11:41:28.827Z,98875.13
2022-12-08T11:44:02.766Z,98885.91
2022-12-08T11:46:34.493Z,98884.47
2022-12-08T11:49:06.903Z,98888.84
2022-12-08T11:51:38.025Z,98882.94
2022-12-08T11:54:18.076Z,98892.72
2022-12-08T11:56:48.389Z,98882.66
2022-12-08T11:59:25.481Z,98886.97
2022-12-08T12:01:53.754Z,98886.81
2022-12-08T12:04:27.918Z,98884.63
2022-12-08T12:07:14.354Z,98879.59
2022-12-08T12:09:53.034Z,98882.53
2022-12-08T12:12:36.407Z,98879.16
2022-12-08T12:15:32.864Z,98871.22
2022-12-08T12:18:03.156Z,98878.34
2022-12-08T12:20:35.122Z,98876.38
2022-12-08T12:23:06.517Z,98872.56
2022-12-08T12:25:36.088Z,98877.75
2022-12-08T12:28:14.208Z,98871.50
2022-12-08T12:31:04.590Z,98865.72
2022-12-08T12:33:35.970Z,98865.00
2022-12-08T12:36:11.549Z,98861.94
2022-12-08T12:39:09.970Z,98864.72
2022-12-08T12:41:49.905Z,98862.56
2022-12-08T12:44:44.686Z,98857.38
2022-12-08T12:47:24.043Z,98866.59
2022-12-08T12:50:12.805Z,98867.50
2022-12-08T12:52:44.227Z,98863.19
2022-12-08T12:55:55.839Z,98861.53
2022-12-08T12:58:44.286Z,98859.94
2022-12-08T13:01:55.751Z,98859.88
2022-12-08T13:04:32.734Z,98856.56
2022-12-08T13:07:15.317Z,98853.34
2022-12-08T13:09:58.586Z,98856.31
2022-12-08T13:12:28.286Z,98861.28
2022-12-08T13:15:02.729Z,98859.31
2022-12-08T13:17:41.823Z,98856.56
2022-12-08T13:20:24.439Z,98844.06
2022-12-08T13:23:30.113Z,98857.44
2022-12-08T13:26:19.227Z,98843.53
2022-12-08T13:29:19.910Z,98844.72
2022-12-08T13:32:07.692Z,98844.59
2022-12-08T13:34:50.042Z,98845.75
2022-12-08T13:37:27.946Z,98844.84
2022-12-08T13:40:10.069Z,98845.44
2022-12-08T13:42:55.517Z,98844.63
2022-12-08T13:46:04.365Z,98850.66
2022-12-08T13:48:42.310Z,98849.78
2022-12-08T13:57:12.225Z,98846.41
2022-12-08T13:59:51.490Z,98848.91
2022-12-08T14:02:34.761Z,98848.38
2022-12-08T14:05:21.704Z,98847.75
2022-12-08T14:07:57.286Z,98844.56
2022-12-08T14:10:33.070Z,98853.66
2022-12-08T14:13:08.902Z,98852.34
2022-12-08T14:15:41.744Z,98843.06
2022-12-08T14:18:36.210Z,98846.75
2022-12-08T14:21:22.560Z,98850.03
2022-12-08T14:23:59.207Z,98846.50
2022-12-08T14:26:28.400Z,98844.16
2022-12-08T14:29:00.192Z,98844.47
2022-12-08T14:31:30.578Z,98842.50
2022-12-08T14:34:00.500Z,98844.91
2022-12-08T14:36:33.708Z,98844.50
2022-12-08T14:39:08.057Z,98841.25
2022-12-08T14:41:40.613Z,98838.03
2022-12-08T14:44:25.556Z,98848.06
2022-12-08T14:47:10.903Z,98850.91
2022-12-08T14:49:41.925Z,98858.31
2022-12-08T14:52:15.369Z,98854.31
2022-12-08T14:54:56.142Z,98848.81
2022-12-08T14:57:34.900Z,98847.91
2022-12-08T15:00:18.405Z,98858.78
2022-12-08T15:02:54.991Z,98854.25
2022-12-08T15:05:31.303Z,98852.44
2022-12-08T15:08:04.278Z,98854.19
2022-12-08T15:10:41.649Z,98859.16
2022-12-08T15:13:24.037Z,98861.06
2022-12-08T15:15:55.849Z,98856.63
2022-12-08T15:18:36.784Z,98855.25
2022-12-08T15:21:11.115Z,98862.88
2022-12-08T15:23:45.796Z,98866.50
2022-12-08T15:26:23.120Z,98859.13
2022-12-08T15:29:05.280Z,98856.88
2022-12-08T15:31:44.151Z,98862.50
2022-12-08T15:34:17.783Z,98859.09
2022-12-08T15:36:52.195Z,98861.78
2022-12-08T15:39:36.861Z,98850.22
2022-12-08T15:42:10.298Z,98859.38
2022-12-08T15:44:41.587Z,98858.78
2022-12-08T15:47:17.870Z,98863.16
2022-12-08T15:49:57.090Z,98860.78
2022-12-08T15:52:35.929Z,98858.38
2022-12-08T15:55:04.473Z,98858.00
2022-12-08T15:58:30.762Z,98862.25
2022-12-08T16:09:28.304Z,98858.94
2022-12-08T16:12:15.297Z,98854.97
2022-12-08T16:17:53.637Z,98858.00
2022-12-08T16:20:32.749Z,98851.00
2022-12-08T16:23:41.548Z,98860.91
2022-12-08T16:26:35.526Z,98861.50
2022-12-08T16:29:07.046Z,98860.47
2022-12-08T16:31:38.064Z,98857.09
2022-12-08T16:34:15.841Z,98859.38
2022-12-08T16:36:47.877Z,98856.59
2022-12-08T16:39:27.778Z,98852.28
2022-12-08T16:42:14.662Z,98855.25
2022-12-08T16:44:46.636Z,98859.13
2022-12-08T16:47:28.861Z,98854.81
2022-12-08T16:49:59.656Z,98852.84
2022-12-08T16:52:44.420Z,98853.13
2022-12-08T16:55:19.592Z,98859.78
2022-12-08T16:57:50.754Z,98856.72
2022-12-08T17:00:22.521Z,98857.97
2022-12-08T17:02:52.268Z,98857.72
2022-12-08T17:05:23.005Z,98851.78
2022-12-08T17:08:02.796Z,98856.97
2022-12-08T17:10:43.566Z,98857.25
2022-12-08T17:13:29.435Z,98855.69
2022-12-08T17:15:58.381Z,98857.56
2022-12-08T17:18:27.805Z,98853.41
2022-12-08T17:21:12.384Z,98852.84
2022-12-08T17:23:51.298Z,98856.47
2022-12-08T17:26:36.107Z,98857.31
2022-12-08T17:29:16.888Z,98851.56
2022-12-08T17:31:45.730Z,98851.81
2022-12-08T17:34:18.226Z,98860.13
2022-12-08T17:36:56.489Z,98849.63
2022-12-08T17:39:28.848Z,98852.59
2022-12-08T17:42:08.364Z,98850.03
2022-12-08T17:44:58.301Z,98856.53
2022-12-08T17:47:39.957Z,98851.44
2022-12-08T17:50:27.988Z,98847.38
2022-12-08T17:52:58.521Z,98836.19
2022-12-08T17:55:33.161Z,98838.28
2022-12-08T17:58:07.734Z,98842.09
2022-12-08T18:00:36.847Z,98842.13
2022-12-08T18:03:19.762Z,98841.72
2022-12-08T18:06:05.573Z,98837.22
2022-12-08T18:08:38.271Z,98841.94
2022-12-08T18:11:12.632Z,98833.44
2022-12-08T18:13:45.866Z,98828.41
2022-12-08T18:16:27.747Z,98829.50
2022-12-08T18:18:58.387Z,98818.59
2022-12-08T18:21:28.716Z,98825.25
2022-12-08T18:24:09.855Z,98824.00
2022-12-08T18:26:44.964Z,98814.88
2022-12-08T18:29:23.359Z,98814.09
2022-12-08T18:32:03.791Z,98807.25
2022-12-08T18:34:38.825Z,98810.22
2022-12-08T18:37:14.042Z,98810.34
2022-12-08T18:39:49.735Z,98820.53
2022-12-08T18:42:40.704Z,98810.78
2022-12-08T18:45:36.275Z,98808.22
2022-12-08T18:48:20.840Z,98817.38
2022-12-08T18:50:52.423Z,98813.88
2022-12-08T18:53:31.208Z,98824.97
2022-12-08T18:56:04.493Z,98827.38
2022-12-08T18:58:41.763Z,98830.34
2022-12-08T19:01:21.766Z,98827.97
2022-12-08T19:04:19.993Z,98831.25
2022-12-08T19:06:50.847Z,98831.63
2022-12-08T19:09:30.557Z,98826.34
2022-12-08T19:12:06.293Z,98825.50
2022-12-08T19:14:45.872Z,98822.53
2022-12-08T19:17:33.181Z,98839.56
2022-12-08T19:20:11.980Z,98838.47
2022-12-08T19:22:49.617Z,98837.81
2022-12-08T19:25:25.967Z,98841.19
2022-12-08T19:28:03.130Z,98839.06
2022-12-08T19:30:39.686Z,98830.41
2022-12-08T19:36:23.188Z,98831.94
2022-12-08T19:39:21.209Z,98838.28
2022-12-08T19:42:12.850Z,98848.53
2022-12-08T19:45:00.849Z,98842.25
2022-12-08T19:47:46.651Z,98827.97
2022-12-08T19:50:40.813Z,98838.59
2022-12-08T19:53:19.111Z,98833.75
2022-12-08T19:55:58.808Z,98837.66
2022-12-08T19:58:29.762Z,98831.66
2022-12-08T20:01:05.538Z,98821.47
2022-12-08T20:03:36.926Z,98819.03
2022-12-08T20:06:20.802Z,98819.81
2022-12-08T20:09:04.832Z,98822.06
2022-12-08T20:11:54.633Z,98826.78
2022-12-08T20:14:30.772Z,98829.25
2022-12-08T20:17:04.210Z,98830.00
2022-12-08T20:19:38.912Z,98819.94
2022-12-08T20:22:30.158Z,98819.88
2022-12-08T20:25:06.553Z,98817.81
2022-12-08T20:27:51.117Z,98820.22
2022-12-08T20:30:25.341Z,98817.63
2022-12-08T20:33:08.578Z,98822.97
2022-12-08T20:35:41.143Z,98826.34
2022-12-08T20:38:21.593Z,98828.63
2022-12-08T20:40:51.155Z,98827.06
2022-12-08T20:43:20.836Z,98821.16
2022-12-08T20:45:50.319Z,98822.53
2022-12-08T20:48:19.686Z,98817.91
2022-12-08T20:50:52.322Z,98823.34
2022-12-08T20:53:23.118Z,98823.88
2022-12-08T20:55:55.874Z,98826.66
2022-12-08T20:58:25.065Z,98825.19
2022-12-08T21:00:54.126Z,98825.19
2022-12-08T21:03:23.620Z,98835.13
2022-12-08T21:05:53.556Z,98822.53
2022-12-08T21:08:26.432Z,98826.53
2022-12-08T21:10:57.953Z,98834.72
2022-12-08T21:13:26.218Z,98819.19
2022-12-08T21:15:54.957Z,98805.31
2022-12-08T21:18:24.431Z,98815.44
2022-12-08T21:20:54.095Z,98818.28
2022-12-08T21:23:23.577Z,98812.28
2022-12-08T21:25:52.048Z,98816.91
2022-12-08T21:28:20.309Z,98813.63
2022-12-08T21:30:48.429Z,98810.13
2022-12-08T21:33:17.857Z,98804.72
2022-12-08T21:35:46.305Z,98809.06
2022-12-08T21:38:14.622Z,98808.25
2022-12-08T21:40:44.249Z,98803.63
2022-12-08T21:43:13.707Z,98805.97
2022-12-08T21:45:42.044Z,98811.13
2022-12-08T21:48:11.881Z,98805.78
2022-12-08T21:50:40.431Z,98810.47
2022-12-08T21:53:08.754Z,98803.94
2022-12-08T21:55:37.238Z,98802.41
2022-12-08T21:58:07.247Z,98806.59
2022-12-08T22:00:35.620Z,98814.59
2022-12-08T22:03:04.168Z,98798.22
2022-12-08T22:05:32.543Z,98807.50
2022-12-08T22:08:00.792Z,98811.31
2022-12-08T22:10:29.270Z,98812.78
2022-12-08T22:12:57.523Z,98817.00
2022-12-08T22:15:29.808Z,98814.88
2022-12-08T22:17:58.147Z,98808.97
2022-12-08T22:20:26.419Z,98809.44
2022-12-08T22:22:54.677Z,98820.19
2022-12-08T22:25:23.018Z,98814.34
2022-12-08T22:27:51.285Z,98819.91
2022-12-08T22:30:19.583Z,98807.81
2022-12-08T22:32:49.196Z,98806.16
2022-12-08T22:35:17.561Z,98810.63
2022-12-08T22:37:49.221Z,98804.41
2022-12-08T22:40:17.759Z,98804.66
2022-12-08T22:42:46.211Z,98803.91
2022-12-08T22:45:14.683Z,98803.81
2022-12-08T22:47:42.971Z,98804.06
2022-12-08T22:50:13.100Z,98809.09
2022-12-08T22:52:41.476Z,98810.97
2022-12-08T22:55:10.228Z,98792.72
2022-12-08T22:57:38.768Z,98790.03
2022-12-08T23:00:11.938Z,98795.25
2022-12-08T23:02:40.447Z,98798.53
2022-12-08T23:05:09.468Z,98788.78
2022-12-08T23:07:40.296Z,98797.69
2022-12-08T23:10:10.764Z,98787.66
2022-12-08T23:12:39.265Z,98782.91
2022-12-08T23:15:08.755Z,98782.25
2022-12-08T23:17:37.172Z,98784.25
2022-12-08T23:20:06.966Z,98785.56
2022-12-08T23:22:35.280Z,98780.13
2022-12-08T23:25:07.757Z,98786.06
2022-12-08T23:27:39.608Z,98786.97
2022-12-08T23:30:10.227Z,98795.56
2022-12-08T23:32:42.281Z,98795.34
2022-12-08T23:35:12.840Z,98791.34
2022-12-08T23:37:42.412Z,98795.81
2022-12-08T23:40:16.318Z,98787.50
2022-12-08T23:42:47.474Z,98799.41
2022-12-08T23:45:19.998Z,98790.41
2022-12-08T23:47:48.502Z,98794.84
2022-12-08T23:50:28.550Z,98788.16
2022-12-08T23:53:01.161Z,98783.88
2022-12-08T23:55:36.340Z,98787.28
2022-12-08T23:58:07.480Z,98788.44
